sensor_id;sensor_type;location;lat;lon;timestamp;P1;durP1;ratioP1;P2;durP2;ratioP2
66179;SDS011;52986;44.028;20.466;2023-03-01T00:01:32;26.40;;;9.73;;
66179;SDS011;52986;44.028;20.466;2023-03-01T00:03:58;25.02;;;9.48;;
66179;SDS011;52986;44.028;20.466;2023-03-01T00:06:24;25.08;;;8.98;;
66179;SDS011;52986;44.028;20.466;2023-03-01T00:08:51;24.80;;;9.38;;
66179;SDS011;52986;44.028;20.466;2023-03-01T00:11:18;21.25;;;8.65;;
66179;SDS011;52986;44.028;20.466;2023-03-01T00:13:47;24.95;;;9.07;;
66179;SDS011;52986;44.028;20.466;2023-03-01T00:16:15;28.88;;;11.25;;
66179;SDS011;52986;44.028;20.466;2023-03-01T00:18:44;27.55;;;11.18;;
66179;SDS011;52986;44.028;20.466;2023-03-01T00:21:09;25.83;;;9.60;;
66179;SDS011;52986;44.028;20.466;2023-03-01T00:23:35;31.27;;;10.57;;
66179;SDS011;52986;44.028;20.466;2023-03-01T00:26:01;25.15;;;10.13;;
66179;SDS011;52986;44.028;20.466;2023-03-01T00:28:31;25.70;;;10.40;;
66179;SDS011;52986;44.028;20.466;2023-03-01T00:30:56;29.25;;;11.18;;
66179;SDS011;52986;44.028;20.466;2023-03-01T00:33:30;29.88;;;11.30;;
66179;SDS011;52986;44.028;20.466;2023-03-01T00:35:57;27.85;;;10.65;;
66179;SDS011;52986;44.028;20.466;2023-03-01T00:38:23;25.23;;;10.05;;
66179;SDS011;52986;44.028;20.466;2023-03-01T00:40:49;26.25;;;10.02;;
66179;SDS011;52986;44.028;20.466;2023-03-01T00:43:14;25.48;;;9.13;;
66179;SDS011;52986;44.028;20.466;2023-03-01T00:45:39;26.25;;;9.82;;
66179;SDS011;52986;44.028;20.466;2023-03-01T00:48:05;25.02;;;9.15;;
66179;SDS011;52986;44.028;20.466;2023-03-01T00:50:30;22.67;;;9.00;;
66179;SDS011;52986;44.028;20.466;2023-03-01T00:52:56;25.23;;;9.10;;
66179;SDS011;52986;44.028;20.466;2023-03-01T00:55:21;24.52;;;8.80;;
66179;SDS011;52986;44.028;20.466;2023-03-01T00:57:47;21.27;;;8.27;;
66179;SDS011;52986;44.028;20.466;2023-03-01T01:00:13;19.48;;;7.82;;
66179;SDS011;52986;44.028;20.466;2023-03-01T01:02:38;20.80;;;7.38;;
66179;SDS011;52986;44.028;20.466;2023-03-01T01:05:04;16.95;;;7.45;;
66179;SDS011;52986;44.028;20.466;2023-03-01T01:07:30;19.67;;;7.70;;
66179;SDS011;52986;44.028;20.466;2023-03-01T01:09:55;21.70;;;8.18;;
66179;SDS011;52986;44.028;20.466;2023-03-01T01:12:21;19.33;;;7.57;;
66179;SDS011;52986;44.028;20.466;2023-03-01T01:21:42;18.77;;;7.43;;
66179;SDS011;52986;44.028;20.466;2023-03-01T01:24:08;19.48;;;7.68;;
66179;SDS011;52986;44.028;20.466;2023-03-01T01:26:34;22.23;;;8.45;;
66179;SDS011;52986;44.028;20.466;2023-03-01T01:29:00;20.33;;;8.15;;
66179;SDS011;52986;44.028;20.466;2023-03-01T01:31:27;21.33;;;8.50;;
66179;SDS011;52986;44.028;20.466;2023-03-01T01:33:53;27.25;;;10.82;;
66179;SDS011;52986;44.028;20.466;2023-03-01T01:36:19;25.33;;;10.32;;
66179;SDS011;52986;44.028;20.466;2023-03-01T01:38:46;25.98;;;9.93;;
66179;SDS011;52986;44.028;20.466;2023-03-01T01:41:12;24.35;;;10.35;;
66179;SDS011;52986;44.028;20.466;2023-03-01T01:43:40;20.85;;;8.80;;
66179;SDS011;52986;44.028;20.466;2023-03-01T01:48:58;21.05;;;8.10;;
66179;SDS011;52986;44.028;20.466;2023-03-01T01:51:34;21.73;;;8.30;;
66179;SDS011;52986;44.028;20.466;2023-03-01T01:54:03;21.23;;;8.73;;
66179;SDS011;52986;44.028;20.466;2023-03-01T01:56:35;22.70;;;8.32;;
66179;SDS011;52986;44.028;20.466;2023-03-01T01:59:02;17.73;;;7.22;;
66179;SDS011;52986;44.028;20.466;2023-03-01T02:01:27;17.77;;;7.15;;
66179;SDS011;52986;44.028;20.466;2023-03-01T02:03:53;20.38;;;7.50;;
66179;SDS011;52986;44.028;20.466;2023-03-01T02:06:25;19.23;;;7.63;;
66179;SDS011;52986;44.028;20.466;2023-03-01T02:08:53;17.60;;;7.05;;
66179;SDS011;52986;44.028;20.466;2023-03-01T02:11:22;17.60;;;6.57;;
66179;SDS011;52986;44.028;20.466;2023-03-01T02:13:48;18.17;;;6.47;;
66179;SDS011;52986;44.028;20.466;2023-03-01T02:16:15;14.32;;;5.60;;
66179;SDS011;52986;44.028;20.466;2023-03-01T02:18:42;14.95;;;5.72;;
66179;SDS011;52986;44.028;20.466;2023-03-01T02:23:46;14.63;;;5.13;;
66179;SDS011;52986;44.028;20.466;2023-03-01T02:26:20;15.65;;;5.60;;
66179;SDS011;52986;44.028;20.466;2023-03-01T02:28:49;14.02;;;5.20;;
66179;SDS011;52986;44.028;20.466;2023-03-01T02:31:17;14.63;;;5.40;;
66179;SDS011;52986;44.028;20.466;2023-03-01T02:34:02;12.30;;;4.85;;
66179;SDS011;52986;44.028;20.466;2023-03-01T02:36:35;12.65;;;5.53;;
66179;SDS011;52986;44.028;20.466;2023-03-01T02:41:32;14.40;;;5.20;;
66179;SDS011;52986;44.028;20.466;2023-03-01T02:44:00;15.15;;;5.75;;
66179;SDS011;52986;44.028;20.466;2023-03-01T02:46:27;15.18;;;5.50;;
66179;SDS011;52986;44.028;20.466;2023-03-01T02:48:53;15.43;;;5.65;;
66179;SDS011;52986;44.028;20.466;2023-03-01T02:54:15;15.13;;;5.60;;
66179;SDS011;52986;44.028;20.466;2023-03-01T02:56:49;15.23;;;6.13;;
66179;SDS011;52986;44.028;20.466;2023-03-01T02:59:16;16.95;;;6.25;;
66179;SDS011;52986;44.028;20.466;2023-03-01T03:01:44;18.02;;;7.20;;
66179;SDS011;52986;44.028;20.466;2023-03-01T03:04:11;15.43;;;6.15;;
66179;SDS011;52986;44.028;20.466;2023-03-01T03:06:46;13.90;;;5.38;;
66179;SDS011;52986;44.028;20.466;2023-03-01T03:09:13;13.25;;;5.13;;
66179;SDS011;52986;44.028;20.466;2023-03-01T03:11:40;15.35;;;6.05;;
66179;SDS011;52986;44.028;20.466;2023-03-01T03:14:07;14.43;;;5.63;;
66179;SDS011;52986;44.028;20.466;2023-03-01T03:16:39;13.90;;;5.38;;
66179;SDS011;52986;44.028;20.466;2023-03-01T03:19:05;13.27;;;5.47;;
66179;SDS011;52986;44.028;20.466;2023-03-01T03:21:31;15.60;;;5.28;;
66179;SDS011;52986;44.028;20.466;2023-03-01T03:23:57;13.65;;;5.60;;
66179;SDS011;52986;44.028;20.466;2023-03-01T03:26:23;13.93;;;5.10;;
66179;SDS011;52986;44.028;20.466;2023-03-01T03:28:48;13.93;;;5.18;;
66179;SDS011;52986;44.028;20.466;2023-03-01T03:31:14;16.13;;;6.32;;
66179;SDS011;52986;44.028;20.466;2023-03-01T03:33:39;15.57;;;5.72;;
66179;SDS011;52986;44.028;20.466;2023-03-01T03:36:05;15.57;;;5.97;;
66179;SDS011;52986;44.028;20.466;2023-03-01T03:38:30;17.40;;;6.63;;
66179;SDS011;52986;44.028;20.466;2023-03-01T03:41:03;15.82;;;5.80;;
66179;SDS011;52986;44.028;20.466;2023-03-01T03:43:32;14.50;;;6.03;;
66179;SDS011;52986;44.028;20.466;2023-03-01T03:45:58;17.38;;;6.57;;
66179;SDS011;52986;44.028;20.466;2023-03-01T03:48:24;16.90;;;6.55;;
66179;SDS011;52986;44.028;20.466;2023-03-01T03:50:51;17.05;;;6.82;;
66179;SDS011;52986;44.028;20.466;2023-03-01T03:53:19;13.75;;;5.40;;
66179;SDS011;52986;44.028;20.466;2023-03-01T03:55:45;17.65;;;6.82;;
66179;SDS011;52986;44.028;20.466;2023-03-01T03:58:14;16.92;;;6.68;;
66179;SDS011;52986;44.028;20.466;2023-03-01T04:00:41;15.07;;;6.22;;
66179;SDS011;52986;44.028;20.466;2023-03-01T04:03:08;15.85;;;6.30;;
66179;SDS011;52986;44.028;20.466;2023-03-01T04:05:33;13.95;;;6.07;;
66179;SDS011;52986;44.028;20.466;2023-03-01T04:08:00;14.20;;;5.60;;
66179;SDS011;52986;44.028;20.466;2023-03-01T04:10:29;13.30;;;5.43;;
66179;SDS011;52986;44.028;20.466;2023-03-01T04:12:56;18.40;;;4.72;;
66179;SDS011;52986;44.028;20.466;2023-03-01T04:15:22;13.75;;;5.07;;
66179;SDS011;52986;44.028;20.466;2023-03-01T04:17:49;14.27;;;5.60;;
66179;SDS011;52986;44.028;20.466;2023-03-01T04:20:20;16.33;;;5.40;;
66179;SDS011;52986;44.028;20.466;2023-03-01T04:22:51;15.80;;;5.72;;
66179;SDS011;52986;44.028;20.466;2023-03-01T04:25:20;15.02;;;6.55;;
66179;SDS011;52986;44.028;20.466;2023-03-01T04:27:46;13.30;;;5.28;;
66179;SDS011;52986;44.028;20.466;2023-03-01T04:30:11;14.35;;;5.63;;
66179;SDS011;52986;44.028;20.466;2023-03-01T04:32:37;13.73;;;5.63;;
66179;SDS011;52986;44.028;20.466;2023-03-01T04:35:02;13.27;;;5.38;;
66179;SDS011;52986;44.028;20.466;2023-03-01T04:37:28;17.73;;;7.10;;
66179;SDS011;52986;44.028;20.466;2023-03-01T04:39:54;16.25;;;6.82;;
66179;SDS011;52986;44.028;20.466;2023-03-01T04:42:20;18.58;;;7.25;;
66179;SDS011;52986;44.028;20.466;2023-03-01T04:44:45;16.92;;;6.97;;
66179;SDS011;52986;44.028;20.466;2023-03-01T04:47:11;18.13;;;7.72;;
66179;SDS011;52986;44.028;20.466;2023-03-01T04:49:37;23.27;;;9.35;;
66179;SDS011;52986;44.028;20.466;2023-03-01T04:52:02;23.40;;;9.50;;
66179;SDS011;52986;44.028;20.466;2023-03-01T04:54:29;23.73;;;9.30;;
66179;SDS011;52986;44.028;20.466;2023-03-01T04:56:55;23.33;;;9.65;;
66179;SDS011;52986;44.028;20.466;2023-03-01T04:59:21;24.92;;;10.57;;
66179;SDS011;52986;44.028;20.466;2023-03-01T05:01:48;23.88;;;10.02;;
66179;SDS011;52986;44.028;20.466;2023-03-01T05:04:13;22.33;;;8.98;;
66179;SDS011;52986;44.028;20.466;2023-03-01T05:06:39;24.80;;;10.05;;
66179;SDS011;52986;44.028;20.466;2023-03-01T05:09:05;23.05;;;9.38;;
66179;SDS011;52986;44.028;20.466;2023-03-01T05:11:30;20.35;;;8.80;;
66179;SDS011;52986;44.028;20.466;2023-03-01T05:14:00;23.08;;;9.65;;
66179;SDS011;52986;44.028;20.466;2023-03-01T05:16:26;22.05;;;9.88;;
66179;SDS011;52986;44.028;20.466;2023-03-01T05:18:52;22.95;;;9.55;;
66179;SDS011;52986;44.028;20.466;2023-03-01T05:21:17;23.17;;;9.73;;
66179;SDS011;52986;44.028;20.466;2023-03-01T05:23:43;22.27;;;9.23;;
66179;SDS011;52986;44.028;20.466;2023-03-01T05:26:09;21.15;;;8.73;;
66179;SDS011;52986;44.028;20.466;2023-03-01T05:28:35;23.15;;;9.48;;
66179;SDS011;52986;44.028;20.466;2023-03-01T05:31:00;23.00;;;10.50;;
66179;SDS011;52986;44.028;20.466;2023-03-01T05:33:26;20.83;;;9.88;;
66179;SDS011;52986;44.028;20.466;2023-03-01T05:35:52;26.40;;;10.73;;
66179;SDS011;52986;44.028;20.466;2023-03-01T05:38:18;31.13;;;12.98;;
66179;SDS011;52986;44.028;20.466;2023-03-01T05:40:45;37.67;;;16.15;;
66179;SDS011;52986;44.028;20.466;2023-03-01T05:43:13;36.88;;;15.15;;
66179;SDS011;52986;44.028;20.466;2023-03-01T05:45:40;33.80;;;14.82;;
66179;SDS011;52986;44.028;20.466;2023-03-01T05:48:06;35.47;;;16.00;;
66179;SDS011;52986;44.028;20.466;2023-03-01T05:50:34;43.03;;;18.00;;
66179;SDS011;52986;44.028;20.466;2023-03-01T05:53:02;35.17;;;15.38;;
66179;SDS011;52986;44.028;20.466;2023-03-01T05:55:31;66.50;;;26.98;;
66179;SDS011;52986;44.028;20.466;2023-03-01T05:58:04;49.85;;;19.83;;
66179;SDS011;52986;44.028;20.466;2023-03-01T06:00:31;39.38;;;15.23;;
66179;SDS011;52986;44.028;20.466;2023-03-01T06:02:57;56.85;;;18.55;;
66179;SDS011;52986;44.028;20.466;2023-03-01T06:05:24;37.00;;;13.52;;
66179;SDS011;52986;44.028;20.466;2023-03-01T06:07:50;27.60;;;10.55;;
66179;SDS011;52986;44.028;20.466;2023-03-01T06:10:15;25.23;;;10.45;;
66179;SDS011;52986;44.028;20.466;2023-03-01T06:12:42;29.83;;;12.68;;
66179;SDS011;52986;44.028;20.466;2023-03-01T06:15:09;30.42;;;13.45;;
66179;SDS011;52986;44.028;20.466;2023-03-01T06:17:37;27.70;;;11.98;;
66179;SDS011;52986;44.028;20.466;2023-03-01T06:20:04;29.40;;;12.32;;
66179;SDS011;52986;44.028;20.466;2023-03-01T06:22:31;29.65;;;12.23;;
66179;SDS011;52986;44.028;20.466;2023-03-01T06:24:57;30.90;;;13.13;;
66179;SDS011;52986;44.028;20.466;2023-03-01T06:27:22;31.60;;;13.55;;
66179;SDS011;52986;44.028;20.466;2023-03-01T06:29:47;35.40;;;15.70;;
66179;SDS011;52986;44.028;20.466;2023-03-01T06:32:13;32.38;;;13.45;;
66179;SDS011;52986;44.028;20.466;2023-03-01T06:34:39;30.35;;;13.43;;
66179;SDS011;52986;44.028;20.466;2023-03-01T06:37:04;38.17;;;16.48;;
66179;SDS011;52986;44.028;20.466;2023-03-01T06:39:31;34.05;;;14.45;;
66179;SDS011;52986;44.028;20.466;2023-03-01T06:41:57;31.85;;;14.90;;
66179;SDS011;52986;44.028;20.466;2023-03-01T06:44:23;34.08;;;15.50;;
66179;SDS011;52986;44.028;20.466;2023-03-01T06:46:48;35.22;;;14.77;;
66179;SDS011;52986;44.028;20.466;2023-03-01T06:49:14;36.50;;;15.15;;
66179;SDS011;52986;44.028;20.466;2023-03-01T06:51:41;31.75;;;13.60;;
66179;SDS011;52986;44.028;20.466;2023-03-01T06:54:06;35.88;;;14.85;;
66179;SDS011;52986;44.028;20.466;2023-03-01T06:56:32;35.25;;;14.73;;
66179;SDS011;52986;44.028;20.466;2023-03-01T06:58:58;34.58;;;15.73;;
66179;SDS011;52986;44.028;20.466;2023-03-01T07:01:23;33.67;;;15.15;;
66179;SDS011;52986;44.028;20.466;2023-03-01T07:03:49;28.38;;;13.38;;
66179;SDS011;52986;44.028;20.466;2023-03-01T07:06:15;26.50;;;11.43;;
66179;SDS011;52986;44.028;20.466;2023-03-01T07:08:41;29.88;;;13.00;;
66179;SDS011;52986;44.028;20.466;2023-03-01T07:11:07;26.60;;;12.17;;
66179;SDS011;52986;44.028;20.466;2023-03-01T07:13:33;33.10;;;13.98;;
66179;SDS011;52986;44.028;20.466;2023-03-01T07:15:58;31.73;;;14.27;;
66179;SDS011;52986;44.028;20.466;2023-03-01T07:18:23;31.35;;;14.35;;
66179;SDS011;52986;44.028;20.466;2023-03-01T07:20:49;33.47;;;14.80;;
66179;SDS011;52986;44.028;20.466;2023-03-01T07:23:14;35.40;;;16.33;;
66179;SDS011;52986;44.028;20.466;2023-03-01T07:25:40;53.53;;;24.05;;
66179;SDS011;52986;44.028;20.466;2023-03-01T07:28:06;35.20;;;16.50;;
66179;SDS011;52986;44.028;20.466;2023-03-01T07:30:31;37.30;;;17.45;;
66179;SDS011;52986;44.028;20.466;2023-03-01T07:32:57;36.25;;;16.88;;
66179;SDS011;52986;44.028;20.466;2023-03-01T07:35:24;34.60;;;16.17;;
66179;SDS011;52986;44.028;20.466;2023-03-01T07:37:50;30.27;;;13.30;;
66179;SDS011;52986;44.028;20.466;2023-03-01T07:40:16;33.22;;;15.70;;
66179;SDS011;52986;44.028;20.466;2023-03-01T07:42:41;31.55;;;14.05;;
66179;SDS011;52986;44.028;20.466;2023-03-01T07:45:07;37.78;;;16.88;;
66179;SDS011;52986;44.028;20.466;2023-03-01T07:47:33;30.40;;;13.45;;
66179;SDS011;52986;44.028;20.466;2023-03-01T07:49:58;32.15;;;14.25;;
66179;SDS011;52986;44.028;20.466;2023-03-01T07:52:23;33.70;;;15.48;;
66179;SDS011;52986;44.028;20.466;2023-03-01T07:54:49;27.77;;;13.15;;
66179;SDS011;52986;44.028;20.466;2023-03-01T07:57:14;29.15;;;13.15;;
66179;SDS011;52986;44.028;20.466;2023-03-01T07:59:40;29.17;;;13.00;;
66179;SDS011;52986;44.028;20.466;2023-03-01T08:02:05;32.08;;;14.73;;
66179;SDS011;52986;44.028;20.466;2023-03-01T08:04:31;34.95;;;15.57;;
66179;SDS011;52986;44.028;20.466;2023-03-01T08:06:58;35.97;;;16.88;;
66179;SDS011;52986;44.028;20.466;2023-03-01T08:09:23;32.95;;;15.43;;
66179;SDS011;52986;44.028;20.466;2023-03-01T08:11:49;32.17;;;14.20;;
66179;SDS011;52986;44.028;20.466;2023-03-01T08:14:14;36.90;;;15.45;;
66179;SDS011;52986;44.028;20.466;2023-03-01T08:16:39;37.75;;;16.23;;
66179;SDS011;52986;44.028;20.466;2023-03-01T08:19:06;35.42;;;15.32;;
66179;SDS011;52986;44.028;20.466;2023-03-01T08:21:32;34.13;;;14.82;;
66179;SDS011;52986;44.028;20.466;2023-03-01T08:23:59;35.08;;;15.98;;
66179;SDS011;52986;44.028;20.466;2023-03-01T08:26:31;38.58;;;16.55;;
66179;SDS011;52986;44.028;20.466;2023-03-01T08:28:58;37.72;;;17.42;;
66179;SDS011;52986;44.028;20.466;2023-03-01T08:31:26;40.88;;;18.30;;
66179;SDS011;52986;44.028;20.466;2023-03-01T08:33:57;42.47;;;19.60;;
66179;SDS011;52986;44.028;20.466;2023-03-01T08:36:25;52.45;;;23.35;;
66179;SDS011;52986;44.028;20.466;2023-03-01T08:38:52;65.57;;;30.08;;
66179;SDS011;52986;44.028;20.466;2023-03-01T08:41:18;82.50;;;35.35;;
66179;SDS011;52986;44.028;20.466;2023-03-01T08:43:43;80.65;;;34.40;;
66179;SDS011;52986;44.028;20.466;2023-03-01T08:46:09;83.05;;;33.75;;
66179;SDS011;52986;44.028;20.466;2023-03-01T08:48:35;82.85;;;34.03;;
66179;SDS011;52986;44.028;20.466;2023-03-01T08:51:07;79.53;;;33.40;;
66179;SDS011;52986;44.028;20.466;2023-03-01T08:53:38;86.80;;;35.10;;
66179;SDS011;52986;44.028;20.466;2023-03-01T08:56:04;79.50;;;33.33;;
66179;SDS011;52986;44.028;20.466;2023-03-01T08:58:29;77.05;;;32.42;;
66179;SDS011;52986;44.028;20.466;2023-03-01T09:00:55;75.93;;;31.38;;
66179;SDS011;52986;44.028;20.466;2023-03-01T09:03:23;72.57;;;30.13;;
66179;SDS011;52986;44.028;20.466;2023-03-01T09:05:50;67.13;;;28.23;;
66179;SDS011;52986;44.028;20.466;2023-03-01T09:08:19;70.78;;;29.55;;
66179;SDS011;52986;44.028;20.466;2023-03-01T09:10:45;70.75;;;29.02;;
66179;SDS011;52986;44.028;20.466;2023-03-01T09:13:11;64.32;;;25.13;;
66179;SDS011;52986;44.028;20.466;2023-03-01T09:15:37;58.30;;;24.23;;
66179;SDS011;52986;44.028;20.466;2023-03-01T09:18:03;64.80;;;25.88;;
66179;SDS011;52986;44.028;20.466;2023-03-01T09:20:28;62.20;;;24.00;;
66179;SDS011;52986;44.028;20.466;2023-03-01T09:22:55;63.15;;;26.63;;
66179;SDS011;52986;44.028;20.466;2023-03-01T09:25:21;63.65;;;26.45;;
66179;SDS011;52986;44.028;20.466;2023-03-01T09:27:46;62.38;;;26.05;;
66179;SDS011;52986;44.028;20.466;2023-03-01T09:30:12;60.03;;;23.67;;
66179;SDS011;52986;44.028;20.466;2023-03-01T09:32:37;57.25;;;24.13;;
66179;SDS011;52986;44.028;20.466;2023-03-01T09:35:07;50.45;;;22.90;;
66179;SDS011;52986;44.028;20.466;2023-03-01T09:37:33;47.90;;;20.10;;
66179;SDS011;52986;44.028;20.466;2023-03-01T09:40:02;44.90;;;19.58;;
66179;SDS011;52986;44.028;20.466;2023-03-01T09:42:32;43.13;;;19.30;;
66179;SDS011;52986;44.028;20.466;2023-03-01T09:45:03;43.17;;;17.40;;
66179;SDS011;52986;44.028;20.466;2023-03-01T09:47:31;55.22;;;23.63;;
66179;SDS011;52986;44.028;20.466;2023-03-01T09:55:10;45.97;;;20.60;;
66179;SDS011;52986;44.028;20.466;2023-03-01T09:57:43;45.80;;;20.30;;
66179;SDS011;52986;44.028;20.466;2023-03-01T10:00:16;42.13;;;19.50;;
66179;SDS011;52986;44.028;20.466;2023-03-01T10:08:28;37.42;;;16.73;;
66179;SDS011;52986;44.028;20.466;2023-03-01T10:11:01;36.65;;;16.77;;
66179;SDS011;52986;44.028;20.466;2023-03-01T10:16:21;33.30;;;15.23;;
66179;SDS011;52986;44.028;20.466;2023-03-01T10:19:10;24.70;;;10.68;;
66179;SDS011;52986;44.028;20.466;2023-03-01T10:21:47;26.27;;;10.35;;
66179;SDS011;52986;44.028;20.466;2023-03-01T10:24:16;16.20;;;7.47;;
66179;SDS011;52986;44.028;20.466;2023-03-01T10:26:47;14.65;;;6.32;;
66179;SDS011;52986;44.028;20.466;2023-03-01T10:29:18;14.23;;;6.38;;
66179;SDS011;52986;44.028;20.466;2023-03-01T10:31:48;14.48;;;6.38;;
66179;SDS011;52986;44.028;20.466;2023-03-01T10:34:17;14.85;;;6.63;;
66179;SDS011;52986;44.028;20.466;2023-03-01T10:36:45;15.30;;;6.78;;
66179;SDS011;52986;44.028;20.466;2023-03-01T10:39:15;15.05;;;6.93;;
66179;SDS011;52986;44.028;20.466;2023-03-01T10:44:40;16.73;;;6.85;;
66179;SDS011;52986;44.028;20.466;2023-03-01T10:47:17;16.13;;;6.82;;
66179;SDS011;52986;44.028;20.466;2023-03-01T10:50:05;17.73;;;7.57;;
66179;SDS011;52986;44.028;20.466;2023-03-01T10:53:01;16.60;;;7.03;;
66179;SDS011;52986;44.028;20.466;2023-03-01T10:55:35;17.20;;;7.28;;
66179;SDS011;52986;44.028;20.466;2023-03-01T10:58:07;17.42;;;7.50;;
66179;SDS011;52986;44.028;20.466;2023-03-01T11:00:52;17.70;;;8.05;;
66179;SDS011;52986;44.028;20.466;2023-03-01T11:03:19;18.45;;;8.02;;
66179;SDS011;52986;44.028;20.466;2023-03-01T11:05:52;18.55;;;8.32;;
66179;SDS011;52986;44.028;20.466;2023-03-01T11:14:00;19.05;;;7.90;;
66179;SDS011;52986;44.028;20.466;2023-03-01T11:16:28;19.38;;;8.65;;
66179;SDS011;52986;44.028;20.466;2023-03-01T11:18:57;17.88;;;7.95;;
66179;SDS011;52986;44.028;20.466;2023-03-01T11:21:24;20.20;;;8.48;;
66179;SDS011;52986;44.028;20.466;2023-03-01T11:23:51;18.33;;;8.55;;
66179;SDS011;52986;44.028;20.466;2023-03-01T11:26:17;19.83;;;9.00;;
66179;SDS011;52986;44.028;20.466;2023-03-01T11:28:44;19.27;;;7.97;;
66179;SDS011;52986;44.028;20.466;2023-03-01T11:31:16;19.27;;;8.60;;
66179;SDS011;52986;44.028;20.466;2023-03-01T11:36:35;19.05;;;8.48;;
66179;SDS011;52986;44.028;20.466;2023-03-01T11:41:41;21.48;;;9.05;;
66179;SDS011;52986;44.028;20.466;2023-03-01T11:44:12;20.75;;;8.75;;
66179;SDS011;52986;44.028;20.466;2023-03-01T11:46:46;21.33;;;9.23;;
66179;SDS011;52986;44.028;20.466;2023-03-01T12:08:41;21.40;;;9.63;;
66179;SDS011;52986;44.028;20.466;2023-03-01T12:35:23;18.60;;;7.20;;
66179;SDS011;52986;44.028;20.466;2023-03-01T12:43:03;19.73;;;8.73;;
66179;SDS011;52986;44.028;20.466;2023-03-01T12:48:31;18.75;;;7.75;;
66179;SDS011;52986;44.028;20.466;2023-03-01T12:51:02;16.60;;;7.50;;
66179;SDS011;52986;44.028;20.466;2023-03-01T12:53:32;14.48;;;6.45;;
66179;SDS011;52986;44.028;20.466;2023-03-01T12:56:12;18.42;;;6.38;;
66179;SDS011;52986;44.028;20.466;2023-03-01T12:58:42;15.70;;;6.50;;
66179;SDS011;52986;44.028;20.466;2023-03-01T13:04:29;15.75;;;6.20;;
66179;SDS011;52986;44.028;20.466;2023-03-01T13:20:27;17.30;;;7.22;;
66179;SDS011;52986;44.028;20.466;2023-03-01T13:23:10;16.80;;;6.93;;
66179;SDS011;52986;44.028;20.466;2023-03-01T13:38:58;14.70;;;6.50;;
66179;SDS011;52986;44.028;20.466;2023-03-01T13:44:50;16.40;;;6.90;;
66179;SDS011;52986;44.028;20.466;2023-03-01T13:58:19;17.35;;;7.20;;
66179;SDS011;52986;44.028;20.466;2023-03-01T14:00:54;15.77;;;6.95;;
66179;SDS011;52986;44.028;20.466;2023-03-01T14:03:20;14.18;;;6.50;;
66179;SDS011;52986;44.028;20.466;2023-03-01T14:08:33;15.98;;;6.20;;
66179;SDS011;52986;44.028;20.466;2023-03-01T14:13:41;14.63;;;5.35;;
66179;SDS011;52986;44.028;20.466;2023-03-01T14:19:31;10.40;;;4.43;;
66179;SDS011;52986;44.028;20.466;2023-03-01T14:21:41;11.20;;;4.15;;
66179;SDS011;52986;44.028;20.466;2023-03-01T14:24:15;11.90;;;4.43;;
66179;SDS011;52986;44.028;20.466;2023-03-01T14:26:43;10.57;;;4.13;;
66179;SDS011;52986;44.028;20.466;2023-03-01T14:29:23;9.55;;;3.58;;
66179;SDS011;52986;44.028;20.466;2023-03-01T14:31:51;8.77;;;3.42;;
66179;SDS011;52986;44.028;20.466;2023-03-01T14:34:18;8.30;;;3.00;;
66179;SDS011;52986;44.028;20.466;2023-03-01T14:36:48;8.55;;;3.28;;
66179;SDS011;52986;44.028;20.466;2023-03-01T14:39:18;10.48;;;4.07;;
66179;SDS011;52986;44.028;20.466;2023-03-01T14:41:45;8.15;;;3.40;;
66179;SDS011;52986;44.028;20.466;2023-03-01T14:44:14;9.30;;;3.75;;
66179;SDS011;52986;44.028;20.466;2023-03-01T14:46:51;9.15;;;3.53;;
66179;SDS011;52986;44.028;20.466;2023-03-01T14:49:24;9.35;;;3.75;;
66179;SDS011;52986;44.028;20.466;2023-03-01T14:51:59;9.23;;;3.63;;
66179;SDS011;52986;44.028;20.466;2023-03-01T14:56:58;10.13;;;4.10;;
66179;SDS011;52986;44.028;20.466;2023-03-01T14:59:25;11.00;;;4.30;;
66179;SDS011;52986;44.028;20.466;2023-03-01T15:01:51;13.38;;;4.63;;
66179;SDS011;52986;44.028;20.466;2023-03-01T15:04:19;12.82;;;5.18;;
66179;SDS011;52986;44.028;20.466;2023-03-01T15:06:47;10.38;;;4.15;;
66179;SDS011;52986;44.028;20.466;2023-03-01T15:09:16;10.43;;;3.92;;
66179;SDS011;52986;44.028;20.466;2023-03-01T15:11:43;12.07;;;3.55;;
66179;SDS011;52986;44.028;20.466;2023-03-01T15:19:50;10.98;;;4.43;;
66179;SDS011;52986;44.028;20.466;2023-03-01T15:22:16;8.88;;;3.58;;
66179;SDS011;52986;44.028;20.466;2023-03-01T15:24:45;11.07;;;4.55;;
66179;SDS011;52986;44.028;20.466;2023-03-01T15:27:14;14.85;;;5.50;;
66179;SDS011;52986;44.028;20.466;2023-03-01T15:29:46;11.30;;;4.10;;
66179;SDS011;52986;44.028;20.466;2023-03-01T15:34:53;9.77;;;4.00;;
66179;SDS011;52986;44.028;20.466;2023-03-01T15:40:23;9.95;;;3.92;;
66179;SDS011;52986;44.028;20.466;2023-03-01T15:43:02;11.73;;;4.47;;
66179;SDS011;52986;44.028;20.466;2023-03-01T15:45:30;13.38;;;5.70;;
66179;SDS011;52986;44.028;20.466;2023-03-01T15:48:02;13.77;;;5.07;;
66179;SDS011;52986;44.028;20.466;2023-03-01T15:50:58;11.25;;;4.57;;
66179;SDS011;52986;44.028;20.466;2023-03-01T15:53:24;11.63;;;4.97;;
66179;SDS011;52986;44.028;20.466;2023-03-01T15:55:52;11.35;;;4.43;;
66179;SDS011;52986;44.028;20.466;2023-03-01T15:58:22;11.05;;;4.40;;
66179;SDS011;52986;44.028;20.466;2023-03-01T16:00:49;14.38;;;5.50;;
66179;SDS011;52986;44.028;20.466;2023-03-01T16:03:20;12.43;;;4.95;;
66179;SDS011;52986;44.028;20.466;2023-03-01T16:05:47;12.13;;;4.78;;
66179;SDS011;52986;44.028;20.466;2023-03-01T16:08:14;11.77;;;4.57;;
66179;SDS011;52986;44.028;20.466;2023-03-01T16:10:40;10.88;;;4.20;;
66179;SDS011;52986;44.028;20.466;2023-03-01T16:13:06;12.15;;;4.78;;
66179;SDS011;52986;44.028;20.466;2023-03-01T16:15:33;10.30;;;4.20;;
66179;SDS011;52986;44.028;20.466;2023-03-01T16:18:00;9.60;;;3.90;;
66179;SDS011;52986;44.028;20.466;2023-03-01T16:20:26;10.02;;;3.58;;
66179;SDS011;52986;44.028;20.466;2023-03-01T16:22:53;18.17;;;6.55;;
66179;SDS011;52986;44.028;20.466;2023-03-01T16:25:19;20.40;;;6.95;;
66179;SDS011;52986;44.028;20.466;2023-03-01T16:27:46;12.35;;;4.72;;
66179;SDS011;52986;44.028;20.466;2023-03-01T16:30:16;11.93;;;4.93;;
66179;SDS011;52986;44.028;20.466;2023-03-01T16:32:44;11.90;;;4.47;;
66179;SDS011;52986;44.028;20.466;2023-03-01T16:35:10;11.55;;;4.53;;
66179;SDS011;52986;44.028;20.466;2023-03-01T16:37:38;11.40;;;4.10;;
66179;SDS011;52986;44.028;20.466;2023-03-01T16:40:05;17.17;;;5.68;;
66179;SDS011;52986;44.028;20.466;2023-03-01T16:42:35;10.93;;;4.15;;
66179;SDS011;52986;44.028;20.466;2023-03-01T16:45:01;11.65;;;4.80;;
66179;SDS011;52986;44.028;20.466;2023-03-01T16:47:27;11.80;;;4.53;;
66179;SDS011;52986;44.028;20.466;2023-03-01T16:49:53;11.35;;;4.28;;
66179;SDS011;52986;44.028;20.466;2023-03-01T16:52:19;12.07;;;5.10;;
66179;SDS011;52986;44.028;20.466;2023-03-01T16:54:46;13.40;;;4.75;;
66179;SDS011;52986;44.028;20.466;2023-03-01T16:57:11;14.15;;;5.65;;
66179;SDS011;52986;44.028;20.466;2023-03-01T16:59:37;13.82;;;5.65;;
66179;SDS011;52986;44.028;20.466;2023-03-01T17:02:02;15.77;;;6.80;;
66179;SDS011;52986;44.028;20.466;2023-03-01T17:04:29;15.52;;;6.65;;
66179;SDS011;52986;44.028;20.466;2023-03-01T17:06:54;18.98;;;8.20;;